Time,TemperatureF,DewpointF,PressureIn,WindDirection,WindDirectionDegrees,WindSpeedMPH,WindSpeedGustMPH,Humidity,HourlyPrecipIn,Conditions,Clouds,dailyrainin,SoftwareType,DateUTC
2013-09-04 00:00:00,65.3,7.4,30.02,SSW,203,0.0,0.0,1,0.00,,,0.00,WUHU216HW,2013-09-04 05:00:00,
2013-09-04 00:05:00,65.3,7.4,30.02,SSW,203,0.0,0.0,1,0.00,,,0.00,WUHU216HW,2013-09-04 05:05:00,
2013-09-04 00:30:00,65.5,7.6,30.02,SSW,203,0.7,0.7,1,0.00,,,0.00,WUHU216HW,2013-09-04 05:30:00,
2013-09-04 00:35:00,65.5,7.6,30.02,SSW,203,0.7,0.7,1,0.00,,,0.00,WUHU216HW,2013-09-04 05:35:00,
2013-09-04 01:00:00,65.2,7.2,30.02,SSW,203,2.7,2.7,1,0.00,,,0.00,WUHU216HW,2013-09-04 06:00:00,
2013-09-04 01:05:00,65.2,7.2,30.02,SSW,203,2.7,2.7,1,0.00,,,0.00,WUHU216HW,2013-09-04 06:05:00,
2013-09-04 01:30:00,64.4,6.7,30.03,South,180,0.4,0.4,1,0.00,,,0.00,WUHU216HW,2013-09-04 06:30:00,
2013-09-04 01:35:00,64.4,6.7,30.03,South,180,0.4,0.4,1,0.00,,,0.00,WUHU216HW,2013-09-04 06:35:00,
2013-09-04 02:00:00,64.8,6.9,30.02,SSW,203,0.7,0.7,1,0.00,,,0.00,WUHU216HW,2013-09-04 07:00:00,
2013-09-04 02:05:00,64.8,6.9,30.02,SSW,203,0.7,0.7,1,0.00,,,0.00,WUHU216HW,2013-09-04 07:05:00,
2013-09-04 02:30:00,64.1,6.4,30.03,SSW,203,1.6,1.6,1,0.00,,,0.00,WUHU216HW,2013-09-04 07:30:00,
2013-09-04 02:35:00,64.1,6.4,30.03,SSW,203,1.6,1.6,1,0.00,,,0.00,WUHU216HW,2013-09-04 07:35:00,
2013-09-04 03:00:00,63.7,6.1,30.03,SSW,203,2.0,2.0,1,0.00,,,0.00,WUHU216HW,2013-09-04 08:00:00,
2013-09-04 03:05:00,63.7,6.1,30.03,SSW,203,2.0,2.0,1,0.00,,,0.00,WUHU216HW,2013-09-04 08:05:00,
2013-09-04 03:30:00,63.2,5.8,30.04,SSW,203,2.7,2.7,1,0.00,,,0.00,WUHU216HW,2013-09-04 08:30:00,
2013-09-04 03:35:00,63.2,5.8,30.04,SSW,203,2.7,2.7,1,0.00,,,0.00,WUHU216HW,2013-09-04 08:35:00,
2013-09-04 04:00:00,63.5,6.0,30.04,SSW,203,0.0,0.2,1,0.00,,,0.00,WUHU216HW,2013-09-04 09:00:00,
2013-09-04 04:05:00,63.5,6.0,30.04,SSW,203,0.0,0.2,1,0.00,,,0.00,WUHU216HW,2013-09-04 09:05:00,
2013-09-04 04:30:00,62.8,5.5,30.05,SSW,203,0.7,0.7,1,0.00,,,0.00,WUHU216HW,2013-09-04 09:30:00,
2013-09-04 04:35:00,62.8,5.5,30.05,SSW,203,0.7,0.7,1,0.00,,,0.00,WUHU216HW,2013-09-04 09:35:00,
2013-09-04 05:00:00,61.6,4.5,30.05,SSW,203,0.0,0.0,1,0.00,,,0.00,WUHU216HW,2013-09-04 10:00:00,
2013-09-04 05:05:00,61.6,4.5,30.05,SSW,203,0.0,0.0,1,0.00,,,0.00,WUHU216HW,2013-09-04 10:05:00,
2013-09-04 05:30:00,60.5,3.7,30.05,SE,135,0.0,0.0,1,0.00,,,0.00,WUHU216HW,2013-09-04 10:30:00,
2013-09-04 05:35:00,60.5,3.7,30.05,SE,135,0.0,0.0,1,0.00,,,0.00,WUHU216HW,2013-09-04 10:35:00,
2013-09-04 06:00:00,59.8,3.1,30.05,North,0,0.0,0.0,1,0.00,,,0.00,WUHU216HW,2013-09-04 11:00:00,
2013-09-04 06:05:00,59.8,3.1,30.05,North,0,0.0,0.0,1,0.00,,,0.00,WUHU216HW,2013-09-04 11:05:00,
2013-09-04 06:30:00,59.0,2.5,30.07,WSW,248,1.1,1.1,1,0.00,,,0.00,WUHU216HW,2013-09-04 11:30:00,
2013-09-04 06:35:00,59.0,2.5,30.07,WSW,248,1.1,1.1,1,0.00,,,0.00,WUHU216HW,2013-09-04 11:35:00,
2013-09-04 07:00:00,59.4,2.8,30.08,South,180,0.0,0.0,1,0.00,,,0.00,WUHU216HW,2013-09-04 12:00:00,
2013-09-04 07:05:00,59.4,2.8,30.08,South,180,0.0,0.0,1,0.00,,,0.00,WUHU216HW,2013-09-04 12:05:00,
2013-09-04 07:30:00,59.8,3.1,30.11,North,0,0.4,0.4,1,0.00,,,0.00,WUHU216HW,2013-09-04 12:30:00,
2013-09-04 07:35:00,59.8,3.1,30.11,North,0,0.4,0.4,1,0.00,,,0.00,WUHU216HW,2013-09-04 12:35:00,
2013-09-04 08:00:00,61.0,4.2,30.12,NE,45,0.4,0.4,1,0.00,,,0.00,WUHU216HW,2013-09-04 13:00:00,
2013-09-04 08:05:00,61.0,4.2,30.12,NE,45,0.4,0.4,1,0.00,,,0.00,WUHU216HW,2013-09-04 13:05:00,
2013-09-04 08:30:00,63.4,6.0,30.12,ESE,113,0.0,0.0,1,0.00,,,0.00,WUHU216HW,2013-09-04 13:30:00,
2013-09-04 08:35:00,63.4,6.0,30.12,ESE,113,0.0,0.0,1,0.00,,,0.00,WUHU216HW,2013-09-04 13:35:00,
2013-09-04 09:00:00,66.2,8.1,30.13,SSW,203,0.9,0.9,1,0.00,,,0.00,WUHU216HW,2013-09-04 14:00:00,
2013-09-04 09:05:00,66.2,8.1,30.13,SSW,203,0.9,0.9,1,0.00,,,0.00,WUHU216HW,2013-09-04 14:05:00,
2013-09-04 09:30:00,68.8,10.1,30.13,SSE,158,0.4,0.4,1,0.00,,,0.00,WUHU216HW,2013-09-04 14:30:00,
2013-09-04 09:35:00,68.8,10.1,30.13,SSE,158,0.4,0.4,1,0.00,,,0.00,WUHU216HW,2013-09-04 14:35:00,
2013-09-04 10:00:00,69.8,10.8,30.13,SW,225,1.3,1.3,1,0.00,,,0.00,WUHU216HW,2013-09-04 15:00:00,
2013-09-04 10:05:00,69.8,10.8,30.13,SW,225,1.3,1.3,1,0.00,,,0.00,WUHU216HW,2013-09-04 15:05:00,
2013-09-04 10:30:00,70.7,11.5,30.14,SSW,203,1.8,1.8,1,0.00,,,0.00,WUHU216HW,2013-09-04 15:30:00,
2013-09-04 10:35:00,70.7,11.5,30.14,SSW,203,1.8,1.8,1,0.00,,,0.00,WUHU216HW,2013-09-04 15:35:00,
2013-09-04 11:00:00,72.2,12.7,30.13,SSW,203,2.0,2.0,1,0.00,,,0.00,WUHU216HW,2013-09-04 16:00:00,
2013-09-04 11:05:00,72.2,12.7,30.13,SSW,203,2.0,2.0,1,0.00,,,0.00,WUHU216HW,2013-09-04 16:05:00,
2013-09-04 11:30:00,72.9,13.2,30.11,SSW,203,3.1,3.1,1,0.00,,,0.00,WUHU216HW,2013-09-04 16:30:00,
2013-09-04 11:35:00,72.9,13.2,30.11,SSW,203,3.1,3.1,1,0.00,,,0.00,WUHU216HW,2013-09-04 16:35:00,
2013-09-04 12:00:00,73.8,14.0,30.11,SSW,203,1.8,1.8,1,0.00,,,0.00,WUHU216HW,2013-09-04 17:00:00,
2013-09-04 12:05:00,73.8,14.0,30.11,SSW,203,1.8,1.8,1,0.00,,,0.00,WUHU216HW,2013-09-04 17:05:00,
2013-09-04 12:30:00,76.7,16.1,30.11,SSW,203,0.4,0.4,1,0.00,,,0.00,WUHU216HW,2013-09-04 17:30:00,
2013-09-04 12:35:00,76.7,16.1,30.11,SSW,203,0.4,0.4,1,0.00,,,0.00,WUHU216HW,2013-09-04 17:35:00,
2013-09-04 13:00:00,78.8,42.8,30.11,SSW,203,1.6,1.6,28,0.00,,,0.00,WUHU216HW,2013-09-04 18:00:00,
2013-09-04 13:05:00,78.8,42.8,30.11,SSW,203,1.6,1.6,28,0.00,,,0.00,WUHU216HW,2013-09-04 18:05:00,
2013-09-04 13:30:00,80.1,52.9,30.10,SSW,203,0.4,0.4,39,0.00,,,0.00,WUHU216HW,2013-09-04 18:30:00,
2013-09-04 13:35:00,80.1,52.9,30.10,SSW,203,0.4,0.4,39,0.00,,,0.00,WUHU216HW,2013-09-04 18:35:00,
2013-09-04 14:00:00,80.3,49.2,30.09,SSW,203,2.9,2.9,34,0.00,,,0.00,WUHU216HW,2013-09-04 19:00:00,
2013-09-04 14:05:00,80.3,49.2,30.09,SSW,203,2.9,2.9,34,0.00,,,0.00,WUHU216HW,2013-09-04 19:05:00,
2013-09-04 14:30:00,85.0,61.2,30.08,South,180,2.5,2.5,45,0.00,,,0.00,WUHU216HW,2013-09-04 19:30:00,
2013-09-04 14:35:00,85.0,61.2,30.08,South,180,2.5,2.5,45,0.00,,,0.00,WUHU216HW,2013-09-04 19:35:00,
2013-09-04 15:00:00,86.8,64.1,30.08,SSW,203,2.5,2.5,47,0.00,,,0.00,WUHU216HW,2013-09-04 20:00:00,
2013-09-04 15:05:00,86.8,64.1,30.08,SSW,203,2.5,2.5,47,0.00,,,0.00,WUHU216HW,2013-09-04 20:05:00,
2013-09-04 15:30:00,85.3,63.5,30.07,SSE,158,4.3,4.3,48,0.00,,,0.00,WUHU216HW,2013-09-04 20:30:00,
2013-09-04 15:35:00,85.3,63.5,30.07,SSE,158,4.3,4.3,48,0.00,,,0.00,WUHU216HW,2013-09-04 20:35:00,
2013-09-04 16:00:00,90.5,63.5,30.06,SSE,158,2.7,2.7,41,0.00,,,0.00,WUHU216HW,2013-09-04 21:00:00,
2013-09-04 16:05:00,90.5,63.5,30.06,SSE,158,2.7,2.7,41,0.00,,,0.00,WUHU216HW,2013-09-04 21:05:00,
2013-09-04 16:30:00,92.5,63.1,30.06,SE,135,4.5,4.5,38,0.00,,,0.00,WUHU216HW,2013-09-04 21:30:00,
2013-09-04 16:35:00,92.5,63.1,30.06,SE,135,4.5,4.5,38,0.00,,,0.00,WUHU216HW,2013-09-04 21:35:00,
2013-09-04 17:00:00,91.4,59.8,30.06,SE,135,3.4,3.4,35,0.00,,,0.00,WUHU216HW,2013-09-04 22:00:00,
2013-09-04 17:05:00,91.4,59.8,30.06,SE,135,3.4,3.4,35,0.00,,,0.00,WUHU216HW,2013-09-04 22:05:00,
2013-09-04 17:30:00,90.2,57.9,30.06,South,180,0.7,0.7,34,0.00,,,0.00,WUHU216HW,2013-09-04 22:30:00,
2013-09-04 17:35:00,90.2,57.9,30.06,South,180,0.7,0.7,34,0.00,,,0.00,WUHU216HW,2013-09-04 22:35:00,
2013-09-04 18:00:00,90.2,61.8,30.06,South,180,3.4,3.4,39,0.00,,,0.00,WUHU216HW,2013-09-04 23:00:00,
2013-09-04 18:05:00,90.2,61.8,30.06,South,180,3.4,3.4,39,0.00,,,0.00,WUHU216HW,2013-09-04 23:05:00,
2013-09-04 18:30:00,88.6,63.8,30.06,South,180,3.4,3.4,44,0.00,,,0.00,WUHU216HW,2013-09-04 23:30:00,
2013-09-04 18:35:00,88.6,63.8,30.06,South,180,3.4,3.4,44,0.00,,,0.00,WUHU216HW,2013-09-04 23:35:00,
2013-09-04 19:00:00,86.4,63.8,30.06,SSW,203,1.8,1.8,47,0.00,,,0.00,WUHU216HW,2013-09-05 00:00:00,
2013-09-04 19:05:00,86.4,63.8,30.06,SSW,203,1.8,1.8,47,0.00,,,0.00,WUHU216HW,2013-09-05 00:05:00,
2013-09-04 19:30:00,81.2,59.0,30.06,SSE,158,1.6,1.6,47,0.00,,,0.00,WUHU216HW,2013-09-05 00:30:00,
2013-09-04 19:35:00,81.2,59.0,30.06,SSE,158,1.6,1.6,47,0.00,,,0.00,WUHU216HW,2013-09-05 00:35:00,
2013-09-04 20:00:00,78.8,55.6,30.06,SSE,158,0.4,0.4,45,0.00,,,0.00,WUHU216HW,2013-09-05 01:00:00,
2013-09-04 20:05:00,78.8,55.6,30.06,SSE,158,0.4,0.4,45,0.00,,,0.00,WUHU216HW,2013-09-05 01:05:00,
2013-09-04 20:30:00,76.0,46.2,30.07,SSE,158,1.1,1.1,35,0.00,,,0.00,WUHU216HW,2013-09-05 01:30:00,
2013-09-04 20:35:00,76.0,46.2,30.07,SSE,158,1.1,1.1,35,0.00,,,0.00,WUHU216HW,2013-09-05 01:35:00,
2013-09-04 21:00:00,73.8,14.0,30.08,SSE,158,0.7,0.7,10,0.00,,,0.00,WUHU216HW,2013-09-05 02:00:00,
2013-09-04 21:05:00,73.8,14.0,30.08,SSE,158,0.7,0.7,10,0.00,,,0.00,WUHU216HW,2013-09-05 02:05:00,
2013-09-04 21:30:00,72.9,13.2,30.09,SSE,158,1.1,1.1,1,0.00,,,0.00,WUHU216HW,2013-09-05 02:30:00,
2013-09-04 21:35:00,72.9,13.2,30.09,SSE,158,1.1,1.1,1,0.00,,,0.00,WUHU216HW,2013-09-05 02:35:00,
2013-09-04 22:00:00,72.2,12.7,30.09,South,180,3.1,3.1,1,0.00,,,0.00,WUHU216HW,2013-09-05 03:00:00,
2013-09-04 22:05:00,72.2,12.7,30.09,South,180,3.1,3.1,1,0.00,,,0.00,WUHU216HW,2013-09-05 03:05:00,
2013-09-04 22:30:00,71.3,12.0,30.10,South,180,0.4,0.4,1,0.00,,,0.00,WUHU216HW,2013-09-05 03:30:00,
2013-09-04 22:35:00,71.3,12.0,30.10,South,180,0.4,0.4,1,0.00,,,0.00,WUHU216HW,2013-09-05 03:35:00,
2013-09-04 23:00:00,70.6,11.3,30.11,South,180,0.9,0.9,1,0.00,,,0.00,WUHU216HW,2013-09-05 04:00:00,
2013-09-04 23:01:00,70.6,11.3,30.11,South,180,0.9,0.9,1,0.00,,,0.00,WUHU216HW,2013-09-05 04:01:00,
2013-09-04 23:02:00,70.6,11.3,30.11,South,180,0.9,0.9,1,0.00,,,0.00,WUHU216HW,2013-09-05 04:02:00,
2013-09-04 23:03:00,70.6,11.3,30.11,South,180,0.9,0.9,1,0.00,,,0.00,WUHU216HW,2013-09-05 04:03:00,
2013-09-04 23:08:00,70.6,11.3,30.11,South,180,0.9,0.9,1,0.00,,,0.00,WUHU216HW,2013-09-05 04:08:00,
2013-09-04 23:30:00,69.7,10.7,30.11,SSE,158,1.1,1.1,1,0.00,,,0.00,WUHU216HW,2013-09-05 04:30:00,
2013-09-04 23:35:00,69.7,10.7,30.11,SSE,158,1.1,1.1,1,0.00,,,0.00,WUHU216HW,2013-09-05 04:35:00,